createdAt,value
2022-09-16T00:00:29.893Z,24.45
2022-09-16T00:02:57.173Z,24.50
2022-09-16T00:05:24.075Z,24.31
2022-09-16T00:07:50.755Z,24.35
2022-09-16T00:10:18.364Z,24.04
2022-09-16T00:12:45.052Z,23.52
2022-09-16T00:15:12.184Z,22.52
2022-09-16T00:17:38.903Z,23.38
2022-09-16T00:20:09.376Z,23.90
2022-09-16T00:22:35.996Z,23.87
2022-09-16T00:25:02.716Z,23.66
2022-09-16T00:27:29.409Z,23.51
2022-09-16T00:29:56.045Z,23.40
2022-09-16T00:32:25.736Z,23.86
2022-09-16T00:34:52.825Z,23.74
2022-09-16T00:37:19.684Z,23.99
2022-09-16T00:39:49.843Z,24.34
2022-09-16T00:42:18.082Z,24.43
2022-09-16T00:45:02.210Z,24.11
2022-09-16T00:47:41.977Z,24.32
2022-09-16T00:50:12.789Z,23.92
2022-09-16T00:52:41.521Z,23.79
2022-09-16T00:55:12.115Z,23.79
2022-09-16T00:57:41.760Z,24.21
2022-09-16T01:00:11.838Z,24.34
2022-09-16T01:02:38.895Z,24.41
2022-09-16T01:05:12.319Z,24.27
2022-09-16T01:07:48.145Z,24.50
2022-09-16T01:10:18.097Z,24.66
2022-09-16T01:12:49.946Z,24.76
2022-09-16T01:15:18.039Z,24.83
2022-09-16T01:18:21.578Z,24.84
2022-09-16T01:21:13.717Z,24.96
2022-09-16T01:23:58.960Z,24.97
2022-09-16T01:26:50.958Z,24.95
2022-09-16T01:29:58.537Z,25.00
2022-09-16T01:32:49.900Z,24.87
2022-09-16T01:35:25.302Z,24.63
2022-09-16T01:38:07.159Z,23.47
2022-09-16T01:41:09.219Z,22.96
2022-09-16T01:43:41.451Z,23.57
2022-09-16T01:46:19.828Z,23.61
2022-09-16T01:48:58.133Z,23.31
2022-09-16T01:51:29.547Z,23.51
2022-09-16T01:54:08.361Z,23.31
2022-09-16T01:57:08.419Z,23.22
2022-09-16T01:59:42.961Z,22.15
2022-09-16T02:02:29.515Z,23.35
2022-09-16T02:05:00.020Z,23.71
2022-09-16T02:07:33.294Z,23.81
2022-09-16T02:10:08.928Z,23.86
2022-09-16T02:12:39.899Z,24.04
2022-09-16T02:15:11.018Z,24.31
2022-09-16T02:17:44.855Z,24.28
2022-09-16T02:20:24.723Z,24.06
2022-09-16T02:23:12.432Z,23.12
2022-09-16T02:25:40.442Z,23.69
2022-09-16T02:28:13.181Z,23.57
2022-09-16T02:30:47.998Z,23.22
2022-09-16T02:33:17.861Z,23.50
2022-09-16T02:35:48.563Z,23.42
2022-09-16T02:38:23.408Z,23.17
2022-09-16T02:40:57.288Z,23.38
2022-09-16T02:43:25.464Z,23.58
2022-09-16T02:46:23.232Z,23.57
2022-09-16T02:49:22.745Z,23.53
2022-09-16T02:52:14.599Z,23.67
2022-09-16T02:54:56.213Z,23.77
2022-09-16T02:57:23.058Z,23.83
2022-09-16T02:59:50.656Z,22.72
2022-09-16T03:02:17.571Z,23.18
2022-09-16T03:04:45.303Z,23.52
2022-09-16T03:07:13.692Z,23.73
2022-09-16T03:09:44.105Z,23.68
2022-09-16T03:12:36.579Z,23.49
2022-09-16T03:15:34.721Z,23.57
2022-09-16T03:18:27.906Z,23.64
2022-09-16T03:21:07.257Z,23.30
2022-09-16T03:23:45.577Z,23.49
2022-09-16T03:26:43.221Z,23.63
2022-09-16T03:29:22.807Z,23.83
2022-09-16T03:31:49.365Z,23.52
2022-09-16T03:34:30.299Z,23.65
2022-09-16T03:37:02.235Z,23.75
2022-09-16T03:39:29.730Z,23.84
2022-09-16T03:42:01.632Z,22.67
2022-09-16T03:44:32.842Z,23.39
2022-09-16T03:46:59.561Z,23.56
2022-09-16T03:49:26.220Z,23.56
2022-09-16T03:51:52.842Z,23.66
2022-09-16T03:54:19.416Z,23.72
2022-09-16T03:56:46.036Z,23.30
2022-09-16T03:59:12.639Z,23.40
2022-09-16T04:01:39.483Z,23.05
2022-09-16T04:04:06.218Z,23.21
2022-09-16T04:06:32.907Z,23.42
2022-09-16T04:09:02.281Z,23.48
2022-09-16T04:11:31.715Z,23.58
2022-09-16T04:13:59.158Z,23.57
2022-09-16T04:16:26.032Z,23.63
2022-09-16T04:18:52.676Z,23.61
2022-09-16T04:21:19.420Z,23.53
2022-09-16T04:23:46.077Z,23.46
2022-09-16T04:26:12.685Z,23.44
2022-09-16T04:28:39.322Z,23.42
2022-09-16T04:31:12.168Z,23.46
2022-09-16T04:33:39.268Z,23.59
2022-09-16T04:36:14.543Z,23.63
2022-09-16T04:38:43.019Z,23.66
2022-09-16T04:41:18.930Z,23.80
2022-09-16T04:43:46.174Z,23.90
2022-09-16T04:46:13.645Z,23.72
2022-09-16T04:48:43.207Z,23.87
2022-09-16T04:51:12.195Z,23.96
2022-09-16T04:53:41.578Z,23.92
2022-09-16T04:56:14.728Z,23.95
2022-09-16T04:58:50.204Z,23.94
2022-09-16T05:01:25.816Z,23.94
2022-09-16T05:03:55.551Z,23.99
2022-09-16T05:06:24.467Z,23.99
2022-09-16T05:08:53.720Z,24.01
2022-09-16T05:11:23.228Z,24.03
2022-09-16T05:13:49.955Z,23.92
2022-09-16T05:16:21.797Z,23.88
2022-09-16T05:18:51.045Z,24.05
2022-09-16T05:21:20.318Z,24.21
2022-09-16T05:23:48.160Z,24.32
2022-09-16T05:26:20.327Z,24.42
2022-09-16T05:28:47.452Z,24.57
2022-09-16T05:31:26.625Z,24.62
2022-09-16T05:34:00.727Z,24.24
2022-09-16T05:36:30.176Z,24.57
2022-09-16T05:39:21.609Z,24.65
2022-09-16T05:41:44.841Z,24.70
2022-09-16T05:44:11.532Z,24.75
2022-09-16T05:46:40.654Z,24.80
2022-09-16T05:49:08.563Z,24.88
2022-09-16T05:51:38.059Z,24.94
2022-09-16T05:54:05.132Z,24.98
2022-09-16T05:56:31.712Z,24.91
2022-09-16T05:59:00.509Z,25.04
2022-09-16T06:01:35.487Z,25.12
2022-09-16T06:04:04.589Z,25.23
2022-09-16T06:06:36.836Z,25.23
2022-09-16T06:09:11.998Z,25.28
2022-09-16T06:11:41.230Z,25.37
2022-09-16T06:14:08.868Z,25.38
2022-09-16T06:16:36.607Z,25.35
2022-09-16T06:19:07.149Z,25.44
2022-09-16T06:21:33.760Z,25.44
2022-09-16T06:24:00.452Z,25.53
2022-09-16T06:26:27.703Z,25.58
2022-09-16T06:28:57.635Z,25.64
2022-09-16T06:31:26.478Z,25.38
2022-09-16T06:33:56.194Z,25.51
2022-09-16T06:36:26.579Z,25.71
2022-09-16T06:38:53.301Z,25.78
2022-09-16T06:41:21.446Z,25.67
2022-09-16T06:43:49.018Z,25.52
2022-09-16T06:46:18.624Z,25.77
2022-09-16T06:48:48.337Z,25.83
2022-09-16T06:51:23.004Z,25.39
2022-09-16T06:53:51.424Z,25.69
2022-09-16T06:56:20.495Z,25.85
2022-09-16T06:58:49.340Z,25.89
2022-09-16T07:01:17.455Z,26.03
2022-09-16T07:03:46.300Z,26.12
2022-09-16T07:06:14.484Z,26.11
2022-09-16T07:08:42.341Z,25.81
2022-09-16T07:11:12.600Z,25.81
2022-09-16T07:13:40.301Z,25.90
2022-09-16T07:16:13.944Z,25.84
2022-09-16T07:18:41.813Z,25.73
2022-09-16T07:21:17.324Z,26.10
2022-09-16T07:23:45.473Z,26.24
2022-09-16T07:26:17.867Z,26.08
2022-09-16T07:28:47.125Z,26.21
2022-09-16T07:31:25.676Z,25.91
2022-09-16T07:33:53.892Z,26.29
2022-09-16T07:36:23.983Z,26.44
2022-09-16T07:38:51.523Z,26.36
2022-09-16T07:41:23.421Z,26.62
2022-09-16T07:43:50.800Z,26.22
2022-09-16T07:46:19.040Z,26.49
2022-09-16T07:48:47.931Z,26.82
2022-09-16T07:51:23.421Z,26.55
2022-09-16T07:53:55.095Z,26.80
2022-09-16T07:56:25.471Z,26.03
2022-09-16T07:58:54.157Z,26.27
2022-09-16T08:01:21.359Z,26.59
2022-09-16T08:03:48.656Z,26.63
2022-09-16T08:06:17.999Z,27.14
2022-09-16T08:08:45.463Z,27.42
2022-09-16T08:11:14.405Z,27.14
2022-09-16T08:13:43.008Z,26.91
2022-09-16T08:16:13.437Z,27.15
2022-09-16T08:18:40.697Z,27.16
2022-09-16T08:21:08.789Z,27.50
2022-09-16T08:23:36.476Z,27.47
2022-09-16T08:26:04.297Z,27.52
2022-09-16T08:28:40.033Z,27.79
2022-09-16T08:31:19.955Z,26.90
2022-09-16T08:33:47.245Z,27.19
2022-09-16T08:36:21.051Z,27.43
2022-09-16T08:38:49.606Z,27.75
2022-09-16T08:41:46.692Z,28.01
2022-09-16T08:45:11.808Z,27.75
2022-09-16T08:48:08.085Z,27.68
2022-09-16T08:50:38.302Z,27.87
2022-09-16T08:53:14.785Z,27.98
2022-09-16T08:55:46.834Z,27.53
2022-09-16T08:58:17.737Z,27.93
2022-09-16T09:00:47.389Z,28.10
2022-09-16T09:03:22.015Z,28.13
2022-09-16T09:05:54.524Z,28.23
2022-09-16T09:08:38.572Z,27.86
2022-09-16T09:11:17.223Z,28.14
2022-09-16T09:13:53.124Z,28.19
2022-09-16T09:16:48.832Z,28.15
2022-09-16T09:19:36.728Z,27.87
2022-09-16T09:22:09.798Z,28.10
2022-09-16T09:24:51.514Z,27.59
2022-09-16T09:27:39.097Z,27.61
2022-09-16T09:30:14.533Z,28.13
2022-09-16T09:32:59.364Z,28.31
2022-09-16T09:35:47.282Z,28.25
2022-09-16T09:38:31.859Z,27.83
2022-09-16T09:41:05.822Z,27.71
2022-09-16T09:43:41.442Z,27.92
2022-09-16T09:46:10.526Z,27.68
2022-09-16T09:48:41.883Z,27.77
2022-09-16T09:51:21.099Z,28.06
2022-09-16T09:53:53.612Z,28.11
2022-09-16T09:56:35.373Z,28.38
2022-09-16T09:59:44.919Z,28.10
2022-09-16T10:02:20.729Z,27.81
2022-09-16T10:04:48.205Z,26.98
2022-09-16T10:07:18.478Z,27.22
2022-09-16T10:09:58.024Z,27.19
2022-09-16T10:12:43.047Z,26.58
2022-09-16T10:15:34.303Z,26.76
2022-09-16T10:18:03.048Z,26.95
2022-09-16T10:20:34.997Z,26.69
2022-09-16T10:23:27.635Z,25.62
2022-09-16T10:26:20.707Z,24.10
2022-09-16T10:28:57.262Z,23.51
2022-09-16T10:31:29.316Z,23.53
2022-09-16T10:34:00.851Z,23.57
2022-09-16T10:36:32.782Z,23.85
2022-09-16T10:39:04.889Z,23.64
2022-09-16T10:41:42.410Z,23.23
2022-09-16T10:44:24.120Z,22.64
2022-09-16T10:47:02.853Z,22.83
2022-09-16T10:49:44.728Z,23.25
2022-09-16T10:52:21.676Z,21.97
2022-09-16T10:54:49.229Z,22.43
2022-09-16T10:57:35.238Z,22.73
2022-09-16T11:00:21.768Z,22.39
2022-09-16T11:03:06.484Z,22.48
2022-09-16T11:05:54.699Z,23.17
2022-09-16T11:08:24.416Z,23.08
2022-09-16T11:11:11.905Z,23.40
2022-09-16T11:13:38.699Z,23.83
2022-09-16T11:16:13.618Z,24.25
2022-09-16T11:19:00.483Z,24.82
2022-09-16T11:21:26.999Z,24.90
2022-09-16T11:24:10.684Z,24.86
2022-09-16T11:27:05.298Z,25.28
2022-09-16T11:29:42.760Z,25.38
2022-09-16T11:32:25.205Z,25.43
2022-09-16T11:35:17.744Z,25.39
2022-09-16T11:38:16.443Z,25.26
2022-09-16T11:40:45.911Z,25.25
2022-09-16T11:43:51.015Z,25.72
2022-09-16T11:46:36.485Z,25.49
2022-09-16T11:49:08.954Z,25.62
2022-09-16T11:51:47.806Z,25.55
2022-09-16T11:55:05.123Z,25.71
2022-09-16T11:57:37.256Z,26.22
2022-09-16T12:00:16.880Z,26.15
2022-09-16T12:03:10.613Z,26.45
2022-09-16T12:05:42.978Z,26.95
2022-09-16T12:08:44.608Z,26.55
2022-09-16T12:11:24.031Z,26.30
2022-09-16T12:14:05.453Z,26.59
2022-09-16T12:16:47.058Z,26.70
2022-09-16T12:19:22.226Z,26.72
2022-09-16T12:21:57.825Z,26.65
2022-09-16T12:24:31.026Z,26.67
2022-09-16T12:27:31.345Z,25.92
2022-09-16T12:30:02.810Z,25.82
2022-09-16T12:32:43.739Z,24.81
2022-09-16T12:35:36.720Z,25.07
2022-09-16T12:38:03.788Z,25.12
2022-09-16T12:40:50.592Z,24.89
2022-09-16T12:43:35.449Z,24.73
2022-09-16T12:46:08.138Z,24.51
2022-09-16T12:48:55.219Z,24.70
2022-09-16T12:51:50.366Z,24.93
2022-09-16T12:54:51.222Z,25.22
2022-09-16T12:57:55.753Z,25.47
2022-09-16T13:00:26.064Z,25.51
2022-09-16T13:02:57.667Z,25.00
2022-09-16T13:05:36.773Z,24.99
2022-09-16T13:08:18.997Z,24.88
2022-09-16T13:13:37.424Z,24.83
2022-09-16T13:16:06.681Z,24.33
2022-09-16T13:18:50.391Z,23.97
2022-09-16T13:21:28.057Z,24.44
2022-09-16T13:24:04.054Z,23.79
2022-09-16T13:26:42.217Z,23.71
2022-09-16T13:29:47.167Z,23.41
2022-09-16T13:32:49.010Z,23.61
2022-09-16T13:35:18.647Z,23.61
2022-09-16T13:37:46.773Z,23.63
2022-09-16T13:40:25.124Z,23.27
2022-09-16T13:43:03.518Z,23.55
2022-09-16T13:45:34.054Z,23.79
2022-09-16T13:48:23.341Z,24.02
2022-09-16T13:51:01.383Z,23.79
2022-09-16T13:53:34.728Z,23.78
2022-09-16T13:56:46.887Z,23.80
2022-09-16T13:59:20.480Z,23.54
2022-09-16T14:02:27.556Z,23.78
2022-09-16T14:05:04.391Z,23.95
2022-09-16T14:08:05.026Z,23.88
2022-09-16T14:10:56.800Z,23.93
2022-09-16T14:13:25.186Z,23.89
2022-09-16T14:15:56.429Z,23.59
2022-09-16T14:18:29.767Z,23.34
2022-09-16T14:21:03.692Z,23.46
2022-09-16T14:23:32.645Z,23.79
2022-09-16T14:26:34.935Z,23.92
2022-09-16T14:29:03.670Z,23.77
2022-09-16T14:31:32.584Z,23.80
2022-09-16T14:34:07.567Z,23.64
2022-09-16T14:36:37.956Z,24.01
2022-09-16T14:39:12.078Z,23.86
2022-09-16T14:41:46.136Z,23.98
2022-09-16T14:44:22.687Z,24.07
2022-09-16T14:47:28.369Z,23.93
2022-09-16T14:50:12.427Z,23.76
2022-09-16T14:52:39.209Z,23.83
2022-09-16T14:55:20.455Z,24.02
2022-09-16T14:57:47.405Z,23.86
2022-09-16T15:00:17.362Z,23.75
2022-09-16T15:02:49.991Z,23.89
2022-09-16T15:05:23.044Z,23.63
2022-09-16T15:08:12.604Z,23.80
2022-09-16T15:10:53.208Z,24.27
2022-09-16T15:13:24.404Z,24.06
2022-09-16T15:15:53.575Z,23.92
2022-09-16T15:18:28.771Z,24.03
2022-09-16T15:21:19.800Z,24.23
2022-09-16T15:23:52.214Z,24.56
2022-09-16T15:26:29.437Z,24.28
2022-09-16T15:28:59.117Z,24.45
2022-09-16T15:31:37.061Z,24.32
2022-09-16T15:34:22.927Z,24.42
2022-09-16T15:36:54.859Z,24.08
2022-09-16T15:39:32.987Z,23.58
2022-09-16T15:42:17.285Z,23.87
2022-09-16T15:44:50.003Z,23.69
2022-09-16T15:47:21.264Z,23.75
2022-09-16T15:49:53.023Z,23.11
2022-09-16T15:52:19.775Z,22.75
2022-09-16T15:54:56.179Z,22.50
2022-09-16T15:57:41.047Z,22.60
2022-09-16T16:00:16.274Z,22.36
2022-09-16T16:02:53.478Z,22.75
2022-09-16T16:05:30.178Z,22.99
2022-09-16T16:08:09.646Z,23.19
2022-09-16T16:10:36.744Z,22.90
2022-09-16T16:13:06.617Z,23.16
2022-09-16T16:15:39.430Z,23.51
2022-09-16T16:18:08.772Z,23.33
2022-09-16T16:20:37.248Z,23.10
2022-09-16T16:23:04.002Z,23.09
2022-09-16T16:25:32.356Z,22.37
2022-09-16T16:27:59.065Z,22.60
2022-09-16T16:30:25.739Z,23.26
2022-09-16T16:32:52.403Z,23.18
2022-09-16T16:35:18.967Z,22.49
2022-09-16T16:37:47.261Z,22.63
2022-09-16T16:40:15.370Z,22.18
2022-09-16T16:42:43.739Z,22.82
2022-09-16T16:45:14.157Z,22.53
2022-09-16T16:47:41.248Z,21.65
2022-09-16T16:50:08.211Z,22.34
2022-09-16T16:52:34.847Z,23.09
2022-09-16T16:55:01.671Z,23.13
2022-09-16T16:57:28.252Z,23.03
2022-09-16T16:59:54.884Z,23.03
2022-09-16T17:02:21.470Z,22.32
2022-09-16T17:04:48.173Z,22.76
2022-09-16T17:07:25.697Z,23.33
2022-09-16T17:09:54.161Z,23.60
2022-09-16T17:12:20.968Z,23.47
2022-09-16T17:14:47.784Z,23.31
2022-09-16T17:17:14.419Z,22.93
2022-09-16T17:19:41.025Z,22.75
2022-09-16T17:22:07.762Z,23.17
2022-09-16T17:24:34.835Z,23.04
2022-09-16T17:27:02.220Z,22.46
2022-09-16T17:29:29.133Z,22.10
2022-09-16T17:31:57.232Z,21.98
2022-09-16T17:34:26.396Z,21.95
2022-09-16T17:36:53.250Z,21.45
2022-09-16T17:39:22.822Z,21.19
2022-09-16T17:41:51.104Z,21.96
2022-09-16T17:44:19.008Z,22.43
2022-09-16T17:46:47.166Z,22.74
2022-09-16T17:49:20.259Z,22.74
2022-09-16T17:51:47.927Z,22.95
2022-09-16T17:54:15.182Z,22.15
2022-09-16T17:56:45.176Z,22.45
2022-09-16T17:59:13.608Z,22.04
2022-09-16T18:01:41.107Z,22.61
2022-09-16T18:04:08.227Z,21.39
2022-09-16T18:06:40.942Z,21.78
2022-09-16T18:09:07.707Z,22.31
2022-09-16T18:11:36.392Z,22.50
2022-09-16T18:14:05.119Z,22.60
2022-09-16T18:16:32.802Z,22.10
2022-09-16T18:19:02.195Z,21.33
2022-09-16T18:21:29.882Z,21.42
2022-09-16T18:23:59.358Z,21.35
2022-09-16T18:26:27.412Z,21.78
2022-09-16T18:29:12.581Z,22.12
2022-09-16T18:31:41.565Z,21.67
2022-09-16T18:34:08.575Z,22.08
2022-09-16T18:36:37.722Z,22.33
2022-09-16T18:39:06.051Z,22.50
2022-09-16T18:41:38.271Z,22.67
2022-09-16T18:44:16.308Z,22.44
2022-09-16T18:46:43.680Z,22.47
2022-09-16T18:49:12.784Z,22.09
2022-09-16T18:51:50.522Z,21.59
2022-09-16T18:54:25.971Z,22.08
2022-09-16T18:56:55.843Z,22.48
2022-09-16T18:59:24.555Z,22.10
2022-09-16T19:01:53.889Z,22.48
2022-09-16T19:04:27.886Z,22.62
2022-09-16T19:06:57.357Z,22.29
2022-09-16T19:09:24.375Z,22.55
2022-09-16T19:11:53.152Z,22.49
2022-09-16T19:14:22.452Z,22.35
2022-09-16T19:16:49.232Z,22.47
2022-09-16T19:19:16.130Z,22.56
2022-09-16T19:21:43.669Z,22.82
2022-09-16T19:24:14.358Z,22.81
2022-09-16T19:26:42.224Z,22.64
2022-09-16T19:29:09.829Z,22.93
2022-09-16T19:31:39.371Z,22.96
2022-09-16T19:34:06.864Z,22.88
2022-09-16T19:36:35.381Z,22.99
2022-09-16T19:39:02.809Z,22.86
2022-09-16T19:41:31.364Z,22.90
2022-09-16T19:44:01.146Z,23.16
2022-09-16T19:46:28.971Z,23.02
2022-09-16T19:48:55.871Z,23.00
2022-09-16T19:51:23.877Z,22.97
2022-09-16T19:53:52.426Z,23.13
2022-09-16T19:56:22.179Z,22.92
2022-09-16T19:58:50.368Z,22.54
2022-09-16T20:01:22.660Z,22.59
2022-09-16T20:03:52.479Z,22.73
2022-09-16T20:06:39.967Z,23.06
2022-09-16T20:09:11.541Z,23.19
2022-09-16T20:11:40.516Z,23.20
2022-09-16T20:14:13.575Z,23.29
2022-09-16T20:16:40.683Z,23.13
2022-09-16T20:19:13.588Z,22.53
2022-09-16T20:21:40.999Z,22.69
2022-09-16T20:24:13.697Z,22.80
2022-09-16T20:26:40.332Z,22.85
2022-09-16T20:29:07.096Z,22.92
2022-09-16T20:31:35.911Z,22.96
2022-09-16T20:34:03.623Z,22.95
2022-09-16T20:36:31.785Z,22.94
2022-09-16T20:38:59.901Z,22.82
2022-09-16T20:41:30.015Z,22.91
2022-09-16T20:43:57.323Z,22.74
2022-09-16T20:46:29.826Z,22.56
2022-09-16T20:48:58.610Z,22.64
2022-09-16T20:51:27.582Z,22.66
2022-09-16T20:54:07.697Z,22.23
2022-09-16T20:56:39.751Z,22.49
2022-09-16T20:59:13.216Z,22.65
2022-09-16T21:01:41.687Z,22.53
2022-09-16T21:04:15.641Z,22.01
2022-09-16T21:06:42.661Z,22.42
2022-09-16T21:09:12.155Z,22.59
2022-09-16T21:11:42.742Z,22.59
2022-09-16T21:14:09.368Z,22.65
2022-09-16T21:16:37.873Z,22.63
2022-09-16T21:19:09.307Z,22.49
2022-09-16T21:21:38.659Z,22.67
2022-09-16T21:24:07.288Z,22.62
2022-09-16T21:26:35.862Z,22.72
2022-09-16T21:29:08.862Z,22.56
2022-09-16T21:31:38.023Z,22.55
2022-09-16T21:34:07.045Z,22.56
2022-09-16T21:36:35.427Z,22.42
2022-09-16T21:39:02.235Z,22.13
2022-09-16T21:41:29.148Z,22.25
2022-09-16T21:43:57.471Z,22.12
2022-09-16T21:46:29.141Z,21.89
2022-09-16T21:49:02.344Z,21.97
2022-09-16T21:51:36.231Z,21.59
2022-09-16T21:54:04.566Z,21.71
2022-09-16T21:56:31.637Z,21.22
2022-09-16T21:58:59.174Z,21.44
2022-09-16T22:01:28.576Z,21.73
2022-09-16T22:03:58.170Z,21.62
2022-09-16T22:06:26.333Z,21.07
2022-09-16T22:08:58.830Z,21.57
2022-09-16T22:11:28.435Z,21.42
2022-09-16T22:13:56.656Z,21.66
2022-09-16T22:16:28.729Z,21.62
2022-09-16T22:18:55.534Z,21.71
2022-09-16T22:21:23.285Z,21.91
2022-09-16T22:23:50.519Z,21.99
2022-09-16T22:26:19.453Z,22.02
2022-09-16T22:28:46.387Z,21.80
2022-09-16T22:31:16.215Z,21.81
2022-09-16T22:33:44.595Z,21.72
2022-09-16T22:36:17.013Z,21.84
2022-09-16T22:38:48.113Z,20.89
2022-09-16T22:41:16.038Z,20.05
2022-09-16T22:43:45.180Z,20.62
2022-09-16T22:46:12.022Z,20.97
2022-09-16T22:48:40.085Z,21.09
2022-09-16T22:51:07.807Z,21.31
2022-09-16T22:53:34.969Z,21.51
2022-09-16T22:56:07.184Z,21.42
2022-09-16T22:58:34.241Z,21.44
2022-09-16T23:01:09.801Z,21.67
2022-09-16T23:03:36.730Z,21.27
2022-09-16T23:06:06.049Z,21.33
2022-09-16T23:08:36.022Z,21.24
2022-09-16T23:11:04.340Z,21.00
2022-09-16T23:13:36.041Z,21.02
2022-09-16T23:16:05.596Z,20.92
2022-09-16T23:18:34.670Z,20.81
2022-09-16T23:21:04.199Z,20.76
2022-09-16T23:23:32.251Z,20.37
2022-09-16T23:26:03.709Z,20.54
2022-09-16T23:28:31.013Z,20.31
2022-09-16T23:31:05.423Z,20.76
2022-09-16T23:33:33.004Z,21.03
2022-09-16T23:36:00.440Z,21.07
2022-09-16T23:38:27.725Z,21.30
2022-09-16T23:40:54.764Z,21.58
2022-09-16T23:43:21.756Z,21.49
2022-09-16T23:45:48.496Z,21.54
2022-09-16T23:48:15.219Z,21.23
2022-09-16T23:50:44.223Z,20.95
2022-09-16T23:53:11.305Z,21.12
2022-09-16T23:55:42.291Z,20.90
2022-09-16T23:58:09.412Z,20.94
